Time;durP1;ratioP1;P1;durP2;ratioP2;P2;SDS_P1;SDS_P2;PMS_P1;PMS_P2;Temp;Humidity;BMP_temperature;BMP_pressure;BME280_temperature;BME280_humidity;BME280_pressure;Samples;Min_cycle;Max_cycle;Signal;HPM_P1;HPM_P2
2022/09/15 00:00:11;;;;;;;33.53;21.87;;;13.60;99.90;;;;;;5051204;28;20462;-67
2022/09/15 00:02:38;;;;;;;33.93;22.27;;;13.60;99.90;;;;;;5051978;28;20455;-66
2022/09/15 00:05:06;;;;;;;38.00;21.10;;;13.60;99.90;;;;;;5049784;28;20799;-66
2022/09/15 00:07:34;;;;;;;33.50;20.63;;;13.50;99.90;;;;;;5051331;28;20972;-66
2022/09/15 00:10:02;;;;;;;33.83;20.17;;;13.50;99.90;;;;;;5049758;28;20467;-67
2022/09/15 00:12:29;;;;;;;31.50;21.07;;;13.50;99.90;;;;;;5051286;28;20816;-66
2022/09/15 00:14:56;;;;;;;36.00;23.13;;;13.40;99.90;;;;;;5053005;28;20482;-67
2022/09/15 00:17:23;;;;;;;30.20;20.83;;;13.20;99.90;;;;;;5056768;28;20559;-67
2022/09/15 00:19:50;;;;;;;36.03;23.77;;;13.10;99.90;;;;;;5047564;28;20825;-66
2022/09/15 00:22:18;;;;;;;38.33;21.97;;;13.10;99.90;;;;;;5052893;28;20859;-67
2022/09/15 00:24:48;;;;;;;42.77;23.97;;;13.00;99.90;;;;;;5052976;28;21004;-67
2022/09/15 00:27:15;;;;;;;40.60;22.10;;;12.90;99.90;;;;;;5050266;28;20946;-67
2022/09/15 00:29:42;;;;;;;40.70;23.87;;;12.90;99.90;;;;;;5051814;28;20828;-66
2022/09/15 00:32:09;;;;;;;35.87;22.30;;;12.80;99.90;;;;;;5053741;28;20495;-67
2022/09/15 00:34:35;;;;;;;36.47;23.00;;;12.70;99.90;;;;;;5051943;28;20472;-67
2022/09/15 00:37:03;;;;;;;32.90;21.27;;;12.70;99.90;;;;;;5051315;28;20528;-67
2022/09/15 00:39:29;;;;;;;39.10;21.67;;;12.70;99.90;;;;;;5052575;28;20509;-67
2022/09/15 00:41:57;;;;;;;30.60;22.17;;;12.80;99.90;;;;;;5050366;28;20495;-67
2022/09/15 00:45:01;;;;;;;41.00;23.87;;;12.80;99.90;;;;;;5049033;28;20464;-66
2022/09/15 00:47:33;;;;;;;34.03;22.97;;;12.90;99.90;;;;;;5049316;28;20479;-68
2022/09/15 00:50:07;;;;;;;35.10;22.57;;;12.80;99.90;;;;;;5048855;28;20456;-67
2022/09/15 00:52:38;;;;;;;31.90;21.60;;;12.80;99.90;;;;;;5050692;28;20459;-67
2022/09/15 00:55:09;;;;;;;38.43;22.67;;;12.80;99.90;;;;;;5050713;28;20464;-67
2022/09/15 00:57:46;;;;;;;32.97;21.93;;;12.80;99.90;;;;;;5058312;28;20984;-67
2022/09/15 01:00:17;;;;;;;32.50;23.33;;;12.70;99.90;;;;;;5052230;28;20958;-68
2022/09/15 01:02:46;;;;;;;31.50;21.63;;;12.60;99.90;;;;;;5052676;28;20543;-67
2022/09/15 01:05:16;;;;;;;45.17;24.37;;;12.50;99.90;;;;;;5062889;28;20492;-67
2022/09/15 01:07:49;;;;;;;36.73;23.07;;;12.50;99.90;;;;;;5054555;28;20468;-67
2022/09/15 01:10:21;;;;;;;41.53;24.27;;;12.40;99.90;;;;;;5055176;28;20467;-67
2022/09/15 01:12:49;;;;;;;42.13;22.90;;;12.30;99.90;;;;;;5056345;28;21060;-68
2022/09/15 01:15:18;;;;;;;48.73;23.50;;;12.20;99.90;;;;;;5059453;28;20475;-66
2022/09/15 01:18:00;;;;;;;39.47;22.87;;;12.10;99.90;;;;;;5053002;28;20499;-67
2022/09/15 01:20:59;;;;;;;30.50;20.83;;;12.10;99.90;;;;;;5052807;28;20839;-67
2022/09/15 01:23:49;;;;;;;34.10;23.37;;;12.10;99.90;;;;;;5033891;28;20460;-67
2022/09/15 01:26:42;;;;;;;36.23;24.67;;;12.10;99.90;;;;;;5054742;28;20478;-67
2022/09/15 01:29:39;;;;;;;45.53;24.33;;;12.10;99.90;;;;;;5052902;28;20869;-67
2022/09/15 01:35:04;;;;;;;33.73;23.03;;;12.00;99.90;;;;;;5056845;28;20459;-67
2022/09/15 01:37:37;;;;;;;33.30;23.93;;;12.00;99.90;;;;;;5053641;28;20493;-68
2022/09/15 01:40:06;;;;;;;36.00;24.77;;;12.00;99.90;;;;;;5052411;28;20485;-67
2022/09/15 01:42:35;;;;;;;48.23;24.70;;;12.10;99.90;;;;;;5057969;28;20466;-68
2022/09/15 01:45:08;;;;;;;39.73;25.67;;;12.10;99.90;;;;;;5055044;28;20467;-67
2022/09/15 01:47:36;;;;;;;41.23;25.40;;;12.10;99.90;;;;;;5061867;28;20500;-68
2022/09/15 01:50:09;;;;;;;34.57;24.07;;;12.00;99.90;;;;;;5053043;28;21475;-66
2022/09/15 01:52:40;;;;;;;36.73;25.80;;;12.00;99.90;;;;;;5053604;28;20463;-67
2022/09/15 01:55:13;;;;;;;36.43;23.10;;;12.00;99.90;;;;;;5058143;28;20459;-66
2022/09/15 01:57:40;;;;;;;40.73;27.07;;;12.00;99.90;;;;;;5053184;28;20483;-67
2022/09/15 02:00:10;;;;;;;38.30;26.43;;;12.00;99.90;;;;;;5055190;28;20462;-68
2022/09/15 02:02:41;;;;;;;50.37;24.93;;;11.90;99.90;;;;;;5053458;28;20487;-67
2022/09/15 02:05:13;;;;;;;45.40;26.10;;;11.80;99.90;;;;;;5056723;28;20459;-66
2022/09/15 02:07:46;;;;;;;34.67;24.97;;;11.70;99.90;;;;;;5061233;28;20995;-66
2022/09/15 02:10:19;;;;;;;43.20;25.27;;;11.70;99.90;;;;;;5060234;28;20974;-66
2022/09/15 02:12:49;;;;;;;56.23;27.33;;;11.70;99.90;;;;;;5057229;28;21215;-67
2022/09/15 02:15:24;;;;;;;52.57;27.53;;;11.60;99.90;;;;;;5054733;28;20487;-66
2022/09/15 02:17:53;;;;;;;36.90;28.50;;;11.60;99.90;;;;;;5059111;28;21348;-67
2022/09/15 02:20:24;;;;;;;48.07;29.00;;;11.60;99.90;;;;;;5055215;28;20467;-67
2022/09/15 02:22:56;;;;;;;49.50;30.57;;;11.60;99.90;;;;;;5050973;28;20456;-67
2022/09/15 02:25:28;;;;;;;54.83;29.03;;;11.60;99.90;;;;;;5054352;28;20464;-68
2022/09/15 02:28:00;;;;;;;51.47;27.13;;;11.60;99.90;;;;;;5053884;28;20496;-67
2022/09/15 02:30:30;;;;;;;51.47;26.60;;;11.60;99.90;;;;;;5057851;28;20470;-67
2022/09/15 02:33:01;;;;;;;532.97;46.23;;;11.50;99.90;;;;;;5053925;28;20464;-67
2022/09/15 02:35:32;;;;;;;344.33;36.57;;;11.40;99.90;;;;;;5052486;28;20555;-67
2022/09/15 02:38:00;;;;;;;47.20;27.63;;;11.40;99.90;;;;;;5057292;28;20514;-67
2022/09/15 02:40:28;;;;;;;51.63;29.93;;;11.40;99.90;;;;;;5054383;28;20468;-67
2022/09/15 02:42:56;;;;;;;46.60;28.80;;;11.50;99.90;;;;;;5054830;28;20994;-67
2022/09/15 02:45:25;;;;;;;43.60;29.00;;;11.50;99.90;;;;;;5055261;28;20459;-66
2022/09/15 02:47:53;;;;;;;70.50;30.40;;;11.40;99.90;;;;;;5055018;28;20460;-68
2022/09/15 02:50:21;;;;;;;56.73;29.03;;;11.40;99.90;;;;;;5056830;28;20466;-67
2022/09/15 02:52:49;;;;;;;38.87;27.33;;;11.40;99.90;;;;;;5053257;28;20561;-66
2022/09/15 02:55:16;;;;;;;44.83;30.20;;;11.20;99.90;;;;;;5054677;28;20966;-67
2022/09/15 02:57:42;;;;;;;46.20;29.93;;;11.30;99.90;;;;;;5052250;28;20479;-67
2022/09/15 03:00:13;;;;;;;51.67;32.03;;;11.40;99.90;;;;;;5050649;28;21196;-66
2022/09/15 03:02:40;;;;;;;128.87;34.00;;;11.50;99.90;;;;;;5050053;28;20987;-68
2022/09/15 03:05:10;;;;;;;162.37;34.87;;;11.50;99.90;;;;;;5057240;28;20490;-66
2022/09/15 03:07:37;;;;;;;203.03;37.80;;;11.60;99.90;;;;;;5054518;28;20468;-69
2022/09/15 03:10:05;;;;;;;564.40;48.77;;;11.70;99.90;;;;;;5059117;28;20459;-67
2022/09/15 03:12:36;;;;;;;325.50;39.23;;;11.70;99.90;;;;;;5052984;28;20459;-66
2022/09/15 03:15:04;;;;;;;290.93;44.50;;;11.70;99.90;;;;;;5051282;28;20509;-67
2022/09/15 03:17:35;;;;;;;113.90;32.60;;;11.80;99.90;;;;;;5054218;28;20474;-67
2022/09/15 03:20:04;;;;;;;72.17;31.93;;;11.90;99.90;;;;;;5052428;28;20852;-68
2022/09/15 03:22:32;;;;;;;58.97;30.73;;;12.10;99.90;;;;;;5057154;28;20481;-67
2022/09/15 03:25:00;;;;;;;47.53;29.40;;;12.20;99.90;;;;;;5052400;28;20463;-67
2022/09/15 03:27:27;;;;;;;53.63;30.17;;;12.20;99.90;;;;;;5053447;28;20593;-66
2022/09/15 03:29:54;;;;;;;47.77;31.10;;;12.20;99.90;;;;;;5049892;28;20452;-67
2022/09/15 03:32:21;;;;;;;62.07;30.03;;;12.30;99.90;;;;;;5053210;28;20458;-68
2022/09/15 03:34:48;;;;;;;52.00;29.60;;;12.30;99.90;;;;;;5056853;28;20463;-67
2022/09/15 03:37:15;;;;;;;59.07;31.43;;;12.30;99.90;;;;;;5053483;28;20834;-67
2022/09/15 03:39:47;;;;;;;60.47;29.97;;;12.30;99.90;;;;;;5053299;28;20520;-68
2022/09/15 03:42:14;;;;;;;57.80;29.67;;;12.30;99.90;;;;;;5052688;28;20822;-67
2022/09/15 03:44:41;;;;;;;48.03;29.63;;;12.30;99.90;;;;;;5055837;28;20468;-67
2022/09/15 03:47:07;;;;;;;46.00;27.40;;;12.40;99.90;;;;;;5054980;28;20460;-67
2022/09/15 03:49:35;;;;;;;41.10;26.67;;;12.50;99.90;;;;;;5051877;28;20486;-67
2022/09/15 03:52:02;;;;;;;54.37;25.70;;;12.60;99.90;;;;;;5056791;28;20497;-67
2022/09/15 03:54:29;;;;;;;39.13;26.83;;;12.70;99.90;;;;;;5054399;28;20711;-68
2022/09/15 03:56:58;;;;;;;39.43;25.30;;;12.80;99.90;;;;;;5056585;28;20965;-68
2022/09/15 03:59:25;;;;;;;43.03;25.13;;;12.90;99.90;;;;;;5053567;28;20488;-68
2022/09/15 04:01:53;;;;;;;39.30;25.57;;;12.90;99.90;;;;;;5049052;28;21001;-68
2022/09/15 04:04:20;;;;;;;35.80;23.90;;;13.00;99.90;;;;;;5049565;28;20958;-68
2022/09/15 04:06:47;;;;;;;36.17;24.17;;;13.10;99.90;;;;;;5048265;28;21073;-67
2022/09/15 04:09:14;;;;;;;36.63;23.93;;;13.10;99.90;;;;;;5047708;28;20953;-68
2022/09/15 04:11:41;;;;;;;35.00;23.40;;;13.10;99.90;;;;;;5046779;28;20464;-69
2022/09/15 04:14:09;;;;;;;43.77;25.30;;;13.10;99.90;;;;;;5045745;28;20452;-68
2022/09/15 04:16:37;;;;;;;38.47;26.73;;;13.20;99.90;;;;;;5053304;28;20494;-68
2022/09/15 04:19:04;;;;;;;37.63;24.27;;;13.20;99.90;;;;;;5049173;28;21065;-68
2022/09/15 04:21:31;;;;;;;35.53;24.07;;;13.20;99.90;;;;;;5052891;28;20459;-66
2022/09/15 04:23:58;;;;;;;43.73;23.23;;;13.20;99.90;;;;;;5048655;28;20469;-67
2022/09/15 04:26:28;;;;;;;37.50;23.87;;;13.30;99.90;;;;;;5050446;28;20566;-66
2022/09/15 04:28:56;;;;;;;47.27;24.93;;;13.20;99.90;;;;;;5055312;28;20553;-67
2022/09/15 04:31:24;;;;;;;42.00;25.60;;;13.30;99.90;;;;;;5050697;28;20464;-67
2022/09/15 04:33:53;;;;;;;37.10;25.23;;;13.30;99.90;;;;;;5050504;28;20459;-66
2022/09/15 04:36:22;;;;;;;41.93;25.43;;;13.30;99.90;;;;;;5054057;28;20471;-66
2022/09/15 04:38:50;;;;;;;35.37;26.33;;;13.30;99.90;;;;;;5054877;28;20487;-67
2022/09/15 04:41:18;;;;;;;36.57;25.50;;;13.30;99.90;;;;;;5052815;28;20526;-67
2022/09/15 04:43:45;;;;;;;35.50;25.20;;;13.30;99.90;;;;;;5050144;28;20462;-67
2022/09/15 04:46:15;;;;;;;34.37;25.83;;;13.30;99.90;;;;;;5058706;28;20470;-69
2022/09/15 04:48:44;;;;;;;40.27;23.77;;;13.30;99.90;;;;;;5058438;28;20502;-67
2022/09/15 04:51:14;;;;;;;35.03;24.77;;;13.30;99.90;;;;;;5053120;28;20498;-67
2022/09/15 04:53:43;;;;;;;40.73;26.57;;;13.30;99.90;;;;;;5055279;28;20467;-66
2022/09/15 04:56:11;;;;;;;35.37;28.30;;;13.30;99.90;;;;;;5054631;28;20729;-69
2022/09/15 04:58:39;;;;;;;39.80;26.57;;;13.20;99.90;;;;;;5053142;28;20472;-67
2022/09/15 05:01:12;;;;;;;36.73;27.90;;;13.20;99.90;;;;;;5053132;28;20495;-67
2022/09/15 05:03:39;;;;;;;44.17;28.40;;;13.10;99.90;;;;;;5052535;28;20463;-67
2022/09/15 05:06:10;;;;;;;41.73;26.97;;;13.10;99.90;;;;;;5057377;28;20842;-67
2022/09/15 05:08:36;;;;;;;37.83;27.80;;;13.10;99.90;;;;;;5054849;28;20460;-67
2022/09/15 05:11:05;;;;;;;34.37;25.97;;;13.10;99.90;;;;;;5052577;28;20459;-67
2022/09/15 05:13:33;;;;;;;44.83;27.43;;;13.20;99.90;;;;;;5052725;28;20877;-66
2022/09/15 05:16:04;;;;;;;39.03;26.30;;;13.10;99.90;;;;;;5057857;28;21389;-67
2022/09/15 05:18:32;;;;;;;35.03;26.17;;;13.20;99.90;;;;;;5050482;28;20574;-67
2022/09/15 05:20:59;;;;;;;38.30;26.33;;;13.20;99.90;;;;;;5049766;28;20504;-68
2022/09/15 05:23:27;;;;;;;36.47;27.40;;;13.10;99.90;;;;;;5055674;28;20945;-66
2022/09/15 05:25:55;;;;;;;38.80;26.43;;;13.00;99.90;;;;;;5059978;28;20898;-67
2022/09/15 05:28:24;;;;;;;37.83;27.33;;;13.10;99.90;;;;;;5052302;28;20896;-66
2022/09/15 05:30:51;;;;;;;41.37;28.27;;;13.00;99.90;;;;;;5053503;28;20459;-67
2022/09/15 05:33:18;;;;;;;41.73;25.83;;;13.00;99.90;;;;;;5054437;28;20902;-66
2022/09/15 05:35:53;;;;;;;40.53;27.83;;;13.00;99.90;;;;;;5057553;28;20548;-67
2022/09/15 05:38:20;;;;;;;40.37;27.20;;;12.90;99.90;;;;;;5050145;28;20474;-66
2022/09/15 05:40:49;;;;;;;48.30;26.60;;;13.00;99.90;;;;;;5050779;28;20996;-67
2022/09/15 05:43:17;;;;;;;44.60;26.80;;;13.00;99.90;;;;;;5048250;28;20451;-68
2022/09/15 05:45:44;;;;;;;38.17;27.27;;;13.10;99.90;;;;;;5056256;28;20465;-67
2022/09/15 05:48:12;;;;;;;42.27;28.20;;;13.20;99.90;;;;;;5056459;28;20474;-68
2022/09/15 05:50:39;;;;;;;36.60;26.53;;;13.20;99.90;;;;;;5055285;28;20468;-68
2022/09/15 05:53:06;;;;;;;35.40;25.67;;;13.20;99.90;;;;;;5052324;28;20924;-68
2022/09/15 05:55:37;;;;;;;40.77;27.73;;;13.30;99.90;;;;;;5051989;28;20872;-68
2022/09/15 05:58:06;;;;;;;43.03;26.47;;;13.30;99.90;;;;;;5054455;28;20534;-68
2022/09/15 06:00:33;;;;;;;45.20;27.53;;;13.30;99.90;;;;;;5054613;28;20530;-68
2022/09/15 06:03:00;;;;;;;35.63;25.00;;;13.40;99.90;;;;;;5047590;28;20462;-67
2022/09/15 06:05:27;;;;;;;45.90;26.27;;;13.40;99.90;;;;;;5049952;28;20555;-67
2022/09/15 06:07:54;;;;;;;48.87;28.23;;;13.40;99.90;;;;;;5052724;28;20471;-67
2022/09/15 06:10:23;;;;;;;41.23;26.07;;;13.50;99.90;;;;;;5051907;28;20464;-67
2022/09/15 06:12:52;;;;;;;36.97;25.70;;;13.60;99.90;;;;;;5052758;28;20452;-68
2022/09/15 06:15:20;;;;;;;44.17;26.47;;;13.70;99.90;;;;;;5053205;28;20873;-69
2022/09/15 06:17:47;;;;;;;37.30;24.93;;;13.70;99.90;;;;;;5047735;28;20851;-67
2022/09/15 06:20:14;;;;;;;39.90;25.40;;;13.80;99.90;;;;;;5055550;28;20510;-67
2022/09/15 06:22:40;;;;;;;42.93;25.97;;;13.90;99.90;;;;;;5049454;28;20507;-68
2022/09/15 06:25:09;;;;;;;38.63;25.30;;;13.90;99.90;;;;;;5051064;28;20464;-68
2022/09/15 06:27:36;;;;;;;38.43;24.07;;;13.90;99.90;;;;;;5057399;28;20538;-68
2022/09/15 06:30:02;;;;;;;33.60;23.93;;;13.90;99.90;;;;;;5054428;28;20878;-68
2022/09/15 06:32:31;;;;;;;35.37;24.90;;;13.90;99.90;;;;;;5049796;28;20517;-67
2022/09/15 06:34:58;;;;;;;37.67;25.80;;;14.00;99.90;;;;;;5050766;28;20471;-68
2022/09/15 06:37:26;;;;;;;41.47;25.77;;;14.10;99.90;;;;;;5050542;28;20456;-67
2022/09/15 06:39:53;;;;;;;37.33;24.17;;;14.10;99.90;;;;;;5057712;28;20486;-68
2022/09/15 06:42:20;;;;;;;38.60;24.13;;;14.20;99.90;;;;;;5052036;28;20452;-68
2022/09/15 06:44:47;;;;;;;35.47;24.57;;;14.30;99.90;;;;;;5051657;28;20456;-69
2022/09/15 06:47:15;;;;;;;42.60;25.80;;;14.40;99.90;;;;;;5060123;28;21017;-67
2022/09/15 06:49:43;;;;;;;36.70;25.40;;;14.40;99.90;;;;;;5054300;28;20738;-68
2022/09/15 06:52:10;;;;;;;32.57;22.30;;;14.40;99.90;;;;;;5051136;28;20533;-68
2022/09/15 06:54:37;;;;;;;34.87;23.23;;;14.40;99.90;;;;;;5051785;28;20460;-68
2022/09/15 06:57:04;;;;;;;35.37;25.87;;;14.50;99.90;;;;;;5051987;28;20474;-68
2022/09/15 06:59:31;;;;;;;41.20;23.70;;;14.50;99.90;;;;;;5050000;28;21040;-69
2022/09/15 07:01:58;;;;;;;38.07;21.57;;;14.60;99.90;;;;;;5049781;28;20468;-69
2022/09/15 07:04:25;;;;;;;35.57;22.50;;;14.70;99.90;;;;;;5049539;28;20485;-69
2022/09/15 07:06:54;;;;;;;31.10;23.57;;;14.70;99.90;;;;;;5047051;28;20855;-69
2022/09/15 07:09:21;;;;;;;32.60;23.30;;;14.80;99.90;;;;;;5045041;28;20541;-68
2022/09/15 07:11:48;;;;;;;34.77;22.60;;;15.00;99.90;;;;;;5049285;28;20864;-69
2022/09/15 07:14:15;;;;;;;34.30;23.00;;;14.80;99.90;;;;;;5054525;28;20478;-68
2022/09/15 07:16:42;;;;;;;42.80;22.97;;;14.80;99.90;;;;;;5052439;28;20901;-67
2022/09/15 07:19:09;;;;;;;39.00;21.70;;;14.90;99.90;;;;;;5050993;28;20479;-67
2022/09/15 07:21:36;;;;;;;33.10;22.40;;;14.90;99.90;;;;;;5051825;28;20464;-68
2022/09/15 07:24:05;;;;;;;31.73;23.33;;;15.10;99.90;;;;;;5048331;28;20557;-69
2022/09/15 07:26:32;;;;;;;34.10;24.53;;;15.10;99.90;;;;;;5049775;28;20559;-68
2022/09/15 07:29:02;;;;;;;30.63;21.60;;;15.20;99.90;;;;;;5048133;28;20458;-69
2022/09/15 07:31:30;;;;;;;42.17;22.60;;;15.30;99.90;;;;;;5051207;28;20822;-69
2022/09/15 07:33:58;;;;;;;34.60;22.90;;;15.30;99.90;;;;;;5051739;28;20554;-68
2022/09/15 07:36:25;;;;;;;37.53;23.53;;;15.40;99.90;;;;;;5049715;28;20564;-69
2022/09/15 07:38:53;;;;;;;30.30;22.40;;;15.30;99.90;;;;;;5050523;28;20497;-68
2022/09/15 07:41:24;;;;;;;35.50;23.70;;;15.30;99.90;;;;;;5051189;28;20562;-70
2022/09/15 07:43:52;;;;;;;33.73;23.37;;;15.40;99.90;;;;;;5052719;28;20940;-68
2022/09/15 07:46:21;;;;;;;38.33;25.20;;;15.30;99.90;;;;;;5054399;28;20466;-68
2022/09/15 07:48:50;;;;;;;37.93;25.30;;;15.40;99.90;;;;;;5052324;28;20470;-68
2022/09/15 07:51:19;;;;;;;35.87;25.27;;;15.70;99.90;;;;;;5049395;28;21020;-69
2022/09/15 07:53:47;;;;;;;32.17;22.73;;;15.90;99.90;;;;;;5058220;28;20463;-67
2022/09/15 07:56:16;;;;;;;28.07;23.00;;;16.00;99.90;;;;;;5052491;28;20474;-69
2022/09/15 07:58:45;;;;;;;30.93;24.00;;;16.10;99.90;;;;;;5051915;28;20986;-67
2022/09/15 08:01:13;;;;;;;36.53;26.23;;;16.20;99.90;;;;;;5053986;28;20994;-68
2022/09/15 08:03:41;;;;;;;32.63;25.93;;;16.30;99.90;;;;;;5049047;28;20543;-68
2022/09/15 08:06:09;;;;;;;40.03;26.87;;;16.40;99.90;;;;;;5053094;28;21021;-69
2022/09/15 08:08:38;;;;;;;31.63;25.63;;;16.40;99.90;;;;;;5053013;28;20487;-69
2022/09/15 08:11:07;;;;;;;30.53;24.40;;;16.50;99.90;;;;;;5054226;28;20831;-67
2022/09/15 08:13:34;;;;;;;32.90;27.60;;;16.70;99.90;;;;;;5046967;28;20448;-68
2022/09/15 08:16:07;;;;;;;30.60;26.67;;;16.40;99.90;;;;;;5055149;28;20508;-67
2022/09/15 08:18:34;;;;;;;35.90;29.13;;;16.40;99.90;;;;;;5049833;28;20540;-69
2022/09/15 08:21:05;;;;;;;31.50;26.90;;;16.40;99.90;;;;;;5052441;28;20485;-69
2022/09/15 08:23:32;;;;;;;34.20;28.13;;;16.50;99.90;;;;;;5051589;28;20463;-68
2022/09/15 08:25:59;;;;;;;38.87;29.77;;;16.70;99.90;;;;;;5052311;28;20459;-69
2022/09/15 08:28:26;;;;;;;35.27;30.90;;;16.90;99.90;;;;;;5057899;28;20463;-68
2022/09/15 08:31:00;;;;;;;34.03;28.03;;;17.00;99.90;;;;;;5044665;28;20467;-68
2022/09/15 08:33:28;;;;;;;32.27;27.80;;;16.90;99.90;;;;;;5049741;28;20464;-69
2022/09/15 08:36:00;;;;;;;34.80;28.70;;;17.10;99.90;;;;;;5051287;28;20929;-69
2022/09/15 08:38:26;;;;;;;34.40;28.77;;;17.30;99.90;;;;;;5051978;28;20467;-69
2022/09/15 08:40:59;;;;;;;32.63;28.87;;;17.30;99.90;;;;;;5050397;28;20492;-67
2022/09/15 08:43:30;;;;;;;33.27;29.57;;;17.40;99.90;;;;;;5047683;28;20464;-68
2022/09/15 08:46:03;;;;;;;33.07;29.67;;;17.60;99.90;;;;;;5051675;28;20470;-67
2022/09/15 08:48:36;;;;;;;31.00;26.80;;;17.90;99.90;;;;;;5057073;28;20466;-66
2022/09/15 08:51:07;;;;;;;31.50;26.70;;;18.10;99.90;;;;;;5051729;28;20467;-68
2022/09/15 08:53:40;;;;;;;30.70;27.73;;;18.10;99.90;;;;;;5050379;28;20492;-66
2022/09/15 08:56:15;;;;;;;37.27;30.37;;;18.00;99.90;;;;;;5051525;28;20528;-68
2022/09/15 08:58:43;;;;;;;31.97;28.73;;;18.10;99.90;;;;;;5050561;28;20810;-66
2022/09/15 09:01:20;;;;;;;36.73;31.13;;;18.40;99.90;;;;;;5054442;28;20488;-67
2022/09/15 09:04:03;;;;;;;33.67;30.33;;;18.40;99.90;;;;;;5055498;28;20471;-66
2022/09/15 09:06:39;;;;;;;33.47;30.27;;;18.50;99.90;;;;;;5052813;28;20475;-68
2022/09/15 09:09:16;;;;;;;34.17;30.57;;;18.80;99.90;;;;;;5051744;28;20456;-68
2022/09/15 09:11:57;;;;;;;35.20;31.53;;;19.10;99.90;;;;;;5050876;28;20458;-66
2022/09/15 09:14:33;;;;;;;32.77;29.30;;;19.20;99.90;;;;;;5053196;28;20463;-68
2022/09/15 09:17:12;;;;;;;31.23;27.90;;;19.40;99.90;;;;;;5052508;28;20487;-68
2022/09/15 09:20:10;;;;;;;30.20;27.17;;;19.20;99.90;;;;;;5055502;28;20468;-68
2022/09/15 09:22:41;;;;;;;28.47;25.73;;;19.10;99.90;;;;;;5051695;28;20546;-67
2022/09/15 09:25:12;;;;;;;29.60;26.73;;;19.10;99.90;;;;;;5059920;28;20451;-69
2022/09/15 09:27:40;;;;;;;33.53;29.40;;;19.10;99.90;;;;;;5051081;28;20529;-69
2022/09/15 09:30:15;;;;;;;31.43;28.10;;;18.80;99.90;;;;;;5055319;28;20820;-68
2022/09/15 09:32:47;;;;;;;30.50;27.50;;;18.80;99.90;;;;;;5055396;28;20467;-67
2022/09/15 09:35:20;;;;;;;28.37;25.23;;;18.60;99.90;;;;;;5053204;28;20464;-69
2022/09/15 09:37:47;;;;;;;27.40;24.90;;;18.80;99.90;;;;;;5054095;28;21009;-68
2022/09/15 09:40:15;;;;;;;27.00;24.30;;;19.00;99.90;;;;;;5049168;28;20484;-69
2022/09/15 09:42:44;;;;;;;25.90;23.43;;;19.30;99.90;;;;;;5053126;28;20459;-69
2022/09/15 09:45:13;;;;;;;26.50;24.20;;;19.30;99.90;;;;;;5054602;28;20470;-67
2022/09/15 09:47:41;;;;;;;24.97;22.43;;;19.40;99.90;;;;;;5055951;28;20460;-69
2022/09/15 09:50:35;;;;;;;26.57;23.20;;;19.30;99.90;;;;;;5054421;28;20891;-69
2022/09/15 09:53:24;;;;;;;24.33;22.23;;;19.00;99.90;;;;;;5061320;28;20962;-70
2022/09/15 09:55:53;;;;;;;23.83;21.70;;;19.10;99.90;;;;;;5051071;28;20459;-68
2022/09/15 09:58:22;;;;;;;25.53;22.97;;;19.10;99.90;;;;;;5049743;28;20507;-68
2022/09/15 10:00:50;;;;;;;25.40;23.10;;;19.00;99.90;;;;;;5054674;28;20489;-67
2022/09/15 10:03:19;;;;;;;24.53;22.50;;;19.10;99.90;;;;;;5051307;28;20463;-68
2022/09/15 10:06:02;;;;;;;24.87;22.50;;;19.30;99.90;;;;;;5052389;28;20589;-68
2022/09/15 10:08:30;;;;;;;26.50;21.00;;;19.20;99.90;;;;;;5053799;28;20472;-69
2022/09/15 10:11:02;;;;;;;23.90;21.90;;;19.30;99.90;;;;;;5050229;28;20659;-69
2022/09/15 10:13:29;;;;;;;24.43;22.33;;;19.60;99.90;;;;;;5051549;28;20469;-68
2022/09/15 10:15:59;;;;;;;25.47;23.17;;;19.80;99.90;;;;;;5052973;28;20955;-68
2022/09/15 10:18:32;;;;;;;24.27;22.10;;;19.70;99.90;;;;;;5050808;28;20463;-69
2022/09/15 10:21:03;;;;;;;26.67;24.33;;;19.90;99.90;;;;;;5054265;28;20488;-67
2022/09/15 10:23:31;;;;;;;27.33;24.87;;;20.00;99.90;;;;;;5055582;28;20455;-68
2022/09/15 10:29:24;;;;;;;23.47;21.27;;;20.10;99.90;;;;;;5089403;27;1211914;-70
2022/09/15 10:31:51;;;;;;;23.60;21.37;;;20.30;99.90;;;;;;5111636;28;20459;-69
2022/09/15 10:34:26;;;;;;;24.03;21.97;;;20.60;99.90;;;;;;5109844;28;20457;-68
2022/09/15 10:36:55;;;;;;;21.70;19.90;;;20.90;99.90;;;;;;5118472;28;20509;-68
2022/09/15 10:39:31;;;;;;;22.67;20.93;;;20.70;99.90;;;;;;5118151;28;20471;-68
2022/09/15 10:42:08;;;;;;;22.37;20.67;;;20.40;99.90;;;;;;5115911;28;20479;-68
2022/09/15 10:44:43;;;;;;;21.57;19.63;;;20.70;99.90;;;;;;5111777;28;20460;-70
2022/09/15 10:47:21;;;;;;;21.37;19.23;;;20.50;99.90;;;;;;5113441;28;20452;-69
2022/09/15 10:50:04;;;;;;;19.30;17.70;;;20.60;99.90;;;;;;5107611;28;20485;-68
2022/09/15 10:52:43;;;;;;;20.93;19.17;;;20.70;99.90;;;;;;5108685;28;20461;-68
2022/09/15 10:55:24;;;;;;;19.83;18.47;;;20.70;99.90;;;;;;5112293;28;20534;-69
2022/09/15 10:58:12;;;;;;;20.23;18.73;;;21.00;99.90;;;;;;5121641;28;20753;-69
2022/09/15 11:00:45;;;;;;;20.10;18.50;;;20.80;99.90;;;;;;5108955;28;20787;-69
2022/09/15 11:03:32;;;;;;;20.67;19.07;;;21.10;99.90;;;;;;5112199;27;20860;-68
2022/09/15 11:06:13;;;;;;;21.07;19.20;;;21.40;99.90;;;;;;5109459;28;20491;-68
2022/09/15 11:09:05;;;;;;;22.77;20.87;;;21.80;99.90;;;;;;5102904;28;20492;-69
2022/09/15 11:11:41;;;;;;;23.23;21.07;;;22.00;99.90;;;;;;5105087;28;20462;-69
2022/09/15 11:14:22;;;;;;;22.57;20.50;;;21.80;99.90;;;;;;5109058;28;20852;-69
2022/09/15 11:17:07;;;;;;;22.10;20.50;;;21.40;99.90;;;;;;5105552;28;20457;-68
2022/09/15 11:20:03;;;;;;;24.63;22.23;;;21.40;99.90;;;;;;5104435;28;20448;-68
2022/09/15 11:22:34;;;;;;;20.97;19.47;;;21.00;99.90;;;;;;5107499;28;20469;-68
2022/09/15 11:25:03;;;;;;;20.70;18.93;;;20.60;99.90;;;;;;5107811;28;21081;-67
2022/09/15 11:27:34;;;;;;;19.00;17.80;;;20.50;99.90;;;;;;5110741;28;20491;-68
2022/09/15 11:30:07;;;;;;;19.00;17.70;;;20.50;99.90;;;;;;5109435;28;20594;-67
2022/09/15 11:32:43;;;;;;;19.17;17.97;;;20.10;99.90;;;;;;5104893;28;20474;-67
2022/09/15 11:35:35;;;;;;;18.57;17.50;;;19.70;99.90;;;;;;5106575;28;20471;-67
2022/09/15 11:38:11;;;;;;;18.60;17.40;;;19.60;99.90;;;;;;5102976;28;20464;-68
2022/09/15 11:40:44;;;;;;;18.70;17.43;;;19.40;99.90;;;;;;5090742;28;20497;-68
2022/09/15 11:43:17;;;;;;;18.53;17.40;;;19.40;99.90;;;;;;5092733;28;20480;-68
2022/09/15 11:45:48;;;;;;;18.10;16.80;;;19.40;99.90;;;;;;5092358;28;20453;-68
2022/09/15 11:48:21;;;;;;;18.37;16.93;;;19.70;99.90;;;;;;5097606;28;20495;-68
2022/09/15 11:50:52;;;;;;;18.70;17.07;;;20.00;99.90;;;;;;5096706;28;20457;-68
2022/09/15 11:53:25;;;;;;;18.80;17.37;;;19.90;99.90;;;;;;5093355;28;20469;-68
2022/09/15 11:56:00;;;;;;;18.40;17.33;;;20.00;99.90;;;;;;5093418;28;20887;-69
2022/09/15 11:58:34;;;;;;;17.97;16.67;;;20.60;99.90;;;;;;5096337;28;20469;-68
2022/09/15 12:01:07;;;;;;;18.47;17.20;;;20.80;99.90;;;;;;5091845;28;20473;-69
2022/09/15 12:03:39;;;;;;;18.33;16.67;;;20.80;99.90;;;;;;5094423;28;20948;-69
2022/09/15 12:06:13;;;;;;;20.33;18.17;;;20.80;99.90;;;;;;5089094;28;20481;-67
2022/09/15 12:08:45;;;;;;;18.10;16.10;;;20.80;99.90;;;;;;5089986;28;21090;-68
2022/09/15 12:11:18;;;;;;;17.47;16.20;;;20.60;99.90;;;;;;5091100;28;20466;-68
2022/09/15 12:13:45;;;;;;;17.57;16.13;;;20.40;99.90;;;;;;5092556;28;20453;-69
2022/09/15 12:16:13;;;;;;;16.73;15.70;;;20.40;99.90;;;;;;5092817;28;20466;-68
2022/09/15 12:18:49;;;;;;;17.43;16.33;;;20.40;99.90;;;;;;5098401;28;20461;-69
2022/09/15 12:21:21;;;;;;;16.63;15.20;;;20.60;99.90;;;;;;5093536;28;20522;-68
2022/09/15 12:23:55;;;;;;;16.40;15.50;;;20.50;99.90;;;;;;5094871;28;20472;-69
2022/09/15 12:26:25;;;;;;;16.70;15.60;;;20.10;99.90;;;;;;5091172;28;20593;-71
2022/09/15 12:28:54;;;;;;;17.00;15.77;;;20.10;99.90;;;;;;5094336;28;20496;-68
2022/09/15 12:31:40;;;;;;;16.67;15.60;;;20.10;99.90;;;;;;5089201;28;20541;-70
2022/09/15 12:34:37;;;;;;;16.67;15.50;;;19.80;99.90;;;;;;5090133;28;20452;-70
2022/09/15 12:37:11;;;;;;;16.73;15.30;;;19.80;99.90;;;;;;5087158;28;20593;-68
2022/09/15 12:39:41;;;;;;;15.83;14.93;;;19.70;99.90;;;;;;5089907;28;20454;-68
2022/09/15 12:42:15;;;;;;;16.20;15.10;;;19.50;99.90;;;;;;5090445;28;21004;-67
2022/09/15 12:44:46;;;;;;;16.00;14.97;;;19.20;99.90;;;;;;5088418;28;20827;-69
2022/09/15 12:47:20;;;;;;;16.33;15.10;;;19.10;99.90;;;;;;5093244;28;20454;-68
2022/09/15 12:49:49;;;;;;;15.80;14.77;;;19.10;99.90;;;;;;5091638;28;20494;-68